Time;durP1;ratioP1;P1;durP2;ratioP2;P2;SDS_P1;SDS_P2;PMS_P1;PMS_P2;Temp;Humidity;BMP_temperature;BMP_pressure;BME280_temperature;BME280_humidity;BME280_pressure;Samples;Min_cycle;Max_cycle;Signal;HPM_P1;HPM_P2
2023/01/07 00:02:07;;;;;;;3.30;3.10;;;11.90;99.90;;;;;;10350362;28;20211;-80
2023/01/07 00:07:09;;;;;;;3.10;3.00;;;11.90;99.90;;;;;;10357969;28;20620;-80
2023/01/07 00:12:11;;;;;;;3.30;2.97;;;11.90;99.90;;;;;;10357524;28;20636;-80
2023/01/07 00:17:14;;;;;;;3.20;3.00;;;11.90;99.90;;;;;;10340936;28;20278;-80
2023/01/07 00:22:16;;;;;;;3.07;2.87;;;11.90;99.90;;;;;;10348519;28;20564;-82
2023/01/07 00:27:18;;;;;;;3.30;3.20;;;11.90;99.90;;;;;;10366258;28;20202;-82
2023/01/07 00:32:46;;;;;;;2.70;2.60;;;11.90;99.90;;;;;;10363221;28;20303;-81
2023/01/07 00:37:49;;;;;;;2.60;2.50;;;11.90;99.90;;;;;;10341215;28;20279;-81
2023/01/07 00:42:55;;;;;;;2.93;2.60;;;11.90;99.90;;;;;;10324342;28;20582;-81
2023/01/07 00:48:00;;;;;;;2.67;2.57;;;11.90;99.90;;;;;;10369984;28;20214;-81
2023/01/07 00:53:02;;;;;;;3.20;3.00;;;11.80;99.90;;;;;;10338562;28;20227;-81
2023/01/07 00:58:04;;;;;;;2.50;2.40;;;11.80;99.90;;;;;;10338893;28;20191;-81
2023/01/07 01:03:10;;;;;;;2.60;2.50;;;11.80;99.90;;;;;;10341691;28;20210;-81
2023/01/07 01:08:12;;;;;;;2.77;2.60;;;11.80;99.90;;;;;;10357842;28;20225;-81
2023/01/07 01:13:17;;;;;;;3.13;3.03;;;11.80;99.90;;;;;;10325281;28;20222;-81
2023/01/07 01:18:20;;;;;;;3.13;2.93;;;11.80;99.90;;;;;;10350240;28;20198;-81
2023/01/07 01:23:23;;;;;;;3.40;3.10;;;11.80;99.90;;;;;;10340912;28;20703;-81
2023/01/07 01:28:25;;;;;;;3.40;3.20;;;11.80;99.90;;;;;;10380098;28;20202;-81
2023/01/07 01:33:28;;;;;;;4.17;2.83;;;11.80;99.90;;;;;;10357645;28;20309;-80
2023/01/07 01:38:31;;;;;;;3.07;2.93;;;11.80;99.90;;;;;;10356733;28;20294;-81
2023/01/07 01:43:36;;;;;;;3.00;2.80;;;11.80;99.90;;;;;;10342701;28;20289;-81
2023/01/07 01:48:47;;;;;;;2.83;2.73;;;11.90;99.90;;;;;;10353344;28;20198;-79
2023/01/07 01:53:50;;;;;;;2.73;2.63;;;11.90;99.90;;;;;;10303401;28;20220;-80
2023/01/07 01:58:56;;;;;;;3.00;2.80;;;11.90;99.90;;;;;;10316841;28;20199;-80
2023/01/07 02:04:12;;;;;;;2.83;2.63;;;11.90;99.90;;;;;;10317710;28;20207;-80
2023/01/07 02:09:14;;;;;;;3.00;2.80;;;11.90;99.90;;;;;;10349946;28;20200;-82
2023/01/07 02:14:35;;;;;;;2.73;2.63;;;11.90;99.90;;;;;;10339824;28;20546;-81
2023/01/07 02:20:15;;;;;;;2.70;2.60;;;11.90;99.90;;;;;;10328998;28;20198;-82
2023/01/07 02:25:42;;;;;;;2.60;2.50;;;11.90;99.90;;;;;;10305123;28;20229;-82
2023/01/07 02:31:10;;;;;;;2.57;2.47;;;11.90;99.90;;;;;;10323690;28;20535;-81
2023/01/07 02:36:33;;;;;;;2.80;2.70;;;11.90;99.90;;;;;;10322600;28;20653;-81
2023/01/07 02:41:44;;;;;;;3.10;2.90;;;11.90;99.90;;;;;;10341203;28;20219;-81
2023/01/07 02:46:52;;;;;;;2.67;2.40;;;11.90;99.90;;;;;;10317652;28;20188;-80
2023/01/07 02:52:08;;;;;;;2.80;2.70;;;11.90;99.90;;;;;;10319917;28;20287;-80
2023/01/07 02:57:34;;;;;;;2.77;2.53;;;11.90;99.90;;;;;;10321303;28;20203;-80
2023/01/07 03:02:52;;;;;;;2.70;2.60;;;11.90;99.90;;;;;;10317785;28;20269;-81
2023/01/07 03:08:07;;;;;;;3.70;2.90;;;11.80;99.90;;;;;;10324922;28;20682;-80
2023/01/07 03:13:16;;;;;;;2.47;2.30;;;11.80;99.90;;;;;;10316638;28;20673;-80
2023/01/07 03:18:22;;;;;;;2.80;2.60;;;11.80;99.90;;;;;;10346293;28;20245;-80
2023/01/07 03:23:28;;;;;;;2.40;2.30;;;11.80;99.90;;;;;;10375348;28;20214;-81
2023/01/07 03:28:34;;;;;;;2.43;2.33;;;11.70;99.90;;;;;;10346222;28;20263;-82
2023/01/07 03:33:41;;;;;;;2.33;2.13;;;11.70;99.90;;;;;;10351670;28;20222;-81
2023/01/07 03:38:46;;;;;;;2.80;2.60;;;11.70;99.90;;;;;;10385043;28;20203;-81
2023/01/07 03:43:49;;;;;;;4.77;2.33;;;11.80;99.90;;;;;;10349158;28;20249;-81
2023/01/07 03:48:51;;;;;;;2.50;2.40;;;11.70;99.90;;;;;;10364866;28;20244;-81
2023/01/07 03:53:55;;;;;;;2.20;2.10;;;11.80;99.90;;;;;;10363226;28;20270;-81
2023/01/07 03:58:58;;;;;;;2.30;2.20;;;11.80;99.90;;;;;;10349732;28;20199;-82
2023/01/07 04:04:00;;;;;;;2.50;2.30;;;11.80;99.90;;;;;;10333699;28;20207;-81
2023/01/07 04:09:04;;;;;;;2.73;2.53;;;11.80;99.90;;;;;;10375440;28;20215;-81
2023/01/07 04:14:08;;;;;;;2.33;2.23;;;11.70;99.90;;;;;;10347402;28;20218;-81
2023/01/07 04:19:10;;;;;;;2.70;2.60;;;11.70;99.90;;;;;;10372842;28;20199;-81
2023/01/07 04:24:14;;;;;;;2.33;2.23;;;11.70;99.90;;;;;;10341392;28;20211;-81
2023/01/07 04:29:17;;;;;;;2.37;2.20;;;11.70;99.90;;;;;;10347062;28;20274;-81
2023/01/07 04:34:19;;;;;;;2.77;2.67;;;11.70;99.90;;;;;;10373850;28;20211;-81
2023/01/07 04:39:23;;;;;;;2.47;2.37;;;11.70;99.90;;;;;;10339471;28;20192;-81
2023/01/07 04:44:25;;;;;;;2.83;2.63;;;11.70;99.90;;;;;;10339720;28;20222;-81
2023/01/07 04:49:28;;;;;;;2.70;2.60;;;11.70;99.90;;;;;;10343470;28;20323;-82
2023/01/07 04:54:32;;;;;;;2.60;2.50;;;11.60;99.90;;;;;;10354801;28;20222;-82
2023/01/07 04:59:34;;;;;;;2.70;2.60;;;11.60;99.90;;;;;;10352068;28;20196;-83
2023/01/07 05:04:37;;;;;;;2.87;2.77;;;11.60;99.90;;;;;;10348082;28;20306;-81
2023/01/07 05:09:41;;;;;;;2.67;2.57;;;11.60;99.90;;;;;;10337305;28;20203;-80
2023/01/07 05:14:43;;;;;;;2.70;2.50;;;11.60;99.90;;;;;;10337852;28;20219;-80
2023/01/07 05:19:45;;;;;;;2.63;2.53;;;11.60;99.90;;;;;;10341781;28;20664;-81
2023/01/07 05:24:50;;;;;;;2.40;2.30;;;11.70;99.90;;;;;;10338067;28;20587;-81
2023/01/07 05:29:52;;;;;;;3.10;3.00;;;11.70;99.90;;;;;;10343263;28;20667;-81
2023/01/07 05:34:55;;;;;;;2.60;2.50;;;11.70;99.90;;;;;;10337976;28;20219;-81
2023/01/07 05:39:59;;;;;;;3.00;2.90;;;11.70;99.90;;;;;;10320607;28;20652;-81
2023/01/07 05:45:01;;;;;;;2.60;2.50;;;11.70;99.90;;;;;;10343391;28;20215;-81
2023/01/07 05:50:03;;;;;;;2.40;2.30;;;11.70;99.90;;;;;;10328884;28;20222;-81
2023/01/07 05:55:08;;;;;;;6.00;5.50;;;11.70;99.90;;;;;;10337645;28;20226;-81
2023/01/07 06:00:11;;;;;;;4.40;4.03;;;11.70;99.90;;;;;;10346169;28;20198;-81
2023/01/07 06:05:15;;;;;;;3.50;3.30;;;11.70;99.90;;;;;;10336858;28;20223;-81
2023/01/07 06:10:19;;;;;;;3.47;3.17;;;11.60;99.90;;;;;;10346611;28;20285;-81
2023/01/07 06:15:21;;;;;;;3.10;2.90;;;11.60;99.90;;;;;;10347240;28;20317;-81
2023/01/07 06:20:23;;;;;;;3.47;3.20;;;11.60;99.90;;;;;;10337719;28;20283;-81
2023/01/07 06:25:27;;;;;;;2.70;2.60;;;11.60;99.90;;;;;;10332941;28;20306;-81
2023/01/07 06:30:29;;;;;;;2.57;2.47;;;11.60;99.90;;;;;;10375964;28;20205;-81
2023/01/07 06:35:31;;;;;;;3.13;2.90;;;11.60;99.90;;;;;;10348107;28;20223;-80
2023/01/07 06:40:35;;;;;;;2.50;2.40;;;11.60;99.90;;;;;;10354101;28;20282;-81
2023/01/07 06:45:37;;;;;;;5.27;2.80;;;11.60;99.90;;;;;;10318016;28;20211;-80
2023/01/07 06:50:39;;;;;;;3.30;2.90;;;11.60;99.90;;;;;;10347241;28;20656;-80
2023/01/07 06:55:48;;;;;;;2.20;2.00;;;11.60;99.90;;;;;;10356005;28;20276;-81
2023/01/07 07:00:50;;;;;;;2.77;2.67;;;11.50;99.90;;;;;;10343830;28;20647;-80
2023/01/07 07:05:52;;;;;;;3.00;2.80;;;11.60;99.90;;;;;;10342859;28;20215;-80
2023/01/07 07:10:55;;;;;;;2.40;2.30;;;11.50;99.90;;;;;;10354896;28;20217;-80
2023/01/07 07:15:57;;;;;;;2.47;2.37;;;11.50;99.90;;;;;;10344131;28;20286;-80
2023/01/07 07:20:59;;;;;;;2.47;2.30;;;11.60;99.90;;;;;;10344049;28;20205;-80
2023/01/07 07:26:03;;;;;;;2.40;2.30;;;11.50;99.90;;;;;;10356298;28;20289;-82
2023/01/07 07:31:05;;;;;;;2.40;2.30;;;11.50;99.90;;;;;;10346396;28;20283;-83
2023/01/07 07:36:08;;;;;;;2.20;2.10;;;11.50;99.90;;;;;;10343225;28;20203;-81
2023/01/07 07:41:11;;;;;;;2.17;2.07;;;11.50;99.90;;;;;;10356472;28;20218;-82
2023/01/07 07:46:13;;;;;;;2.70;2.60;;;11.50;99.90;;;;;;10345196;28;20559;-82
2023/01/07 07:51:16;;;;;;;2.87;2.50;;;11.50;99.90;;;;;;10357901;28;20713;-79
2023/01/07 07:56:19;;;;;;;2.50;2.40;;;11.50;99.90;;;;;;10360273;28;20645;-80
2023/01/07 08:01:21;;;;;;;3.50;3.30;;;11.60;99.90;;;;;;10345941;28;20254;-83
2023/01/07 08:06:23;;;;;;;6.27;5.67;;;11.60;99.90;;;;;;10344044;28;20231;-81
2023/01/07 08:11:27;;;;;;;4.30;3.90;;;11.60;99.90;;;;;;10357585;28;20229;-81
2023/01/07 08:16:29;;;;;;;3.90;3.70;;;11.60;99.90;;;;;;10352041;28;20198;-81
2023/01/07 08:21:31;;;;;;;3.10;2.90;;;11.70;99.90;;;;;;10366591;28;20218;-83
2023/01/07 08:26:34;;;;;;;3.30;3.10;;;11.70;99.90;;;;;;10360767;28;20278;-83
2023/01/07 08:31:36;;;;;;;3.27;3.07;;;11.80;99.90;;;;;;10341502;28;20314;-82
2023/01/07 08:36:38;;;;;;;3.03;2.90;;;11.80;99.90;;;;;;10355729;28;20662;-82
2023/01/07 08:41:44;;;;;;;5.63;2.30;;;11.80;99.90;;;;;;10335249;28;20680;-83
2023/01/07 08:46:46;;;;;;;2.70;2.60;;;11.90;99.90;;;;;;10324438;28;20222;-83
2023/01/07 08:51:48;;;;;;;2.80;2.70;;;11.90;99.90;;;;;;10314923;28;20212;-83
2023/01/07 08:56:52;;;;;;;2.50;2.33;;;11.90;99.90;;;;;;10324450;28;20210;-82
2023/01/07 09:01:54;;;;;;;1.93;1.83;;;12.00;99.90;;;;;;10344121;28;20219;-81
2023/01/07 09:06:57;;;;;;;1.70;1.60;;;12.00;99.90;;;;;;10346835;28;20249;-83
2023/01/07 09:12:00;;;;;;;1.80;1.70;;;12.10;99.90;;;;;;10354979;28;20220;-82
2023/01/07 09:17:02;;;;;;;2.40;2.30;;;12.20;99.90;;;;;;10335291;28;20250;-81
2023/01/07 09:22:05;;;;;;;2.17;2.07;;;12.20;99.90;;;;;;10313851;28;20208;-81
2023/01/07 09:27:10;;;;;;;2.40;2.30;;;12.30;99.50;;;;;;10342307;28;20203;-82
2023/01/07 09:32:12;;;;;;;2.63;2.53;;;12.30;99.80;;;;;;10327980;28;20622;-82
2023/01/07 09:37:19;;;;;;;3.30;3.10;;;12.40;99.90;;;;;;10326484;28;20620;-82
2023/01/07 09:42:30;;;;;;;3.70;3.40;;;12.40;99.90;;;;;;10339749;28;20306;-82
2023/01/07 09:47:36;;;;;;;3.80;3.60;;;12.50;99.70;;;;;;10320294;28;20273;-81
2023/01/07 09:52:43;;;;;;;3.70;3.40;;;12.50;99.90;;;;;;10321805;28;20215;-82
2023/01/07 09:57:47;;;;;;;4.90;4.60;;;12.60;99.60;;;;;;10321416;28;20258;-82
2023/01/07 10:03:13;;;;;;;5.33;4.90;;;12.60;99.00;;;;;;10301464;28;20274;-82
2023/01/07 10:08:25;;;;;;;4.87;4.47;;;12.60;99.20;;;;;;10328181;28;20206;-81
2023/01/07 10:13:52;;;;;;;5.67;5.27;;;12.50;99.40;;;;;;10319354;28;20881;-81
2023/01/07 10:19:02;;;;;;;5.10;4.80;;;12.50;99.00;;;;;;10346220;28;20241;-81
2023/01/07 10:24:11;;;;;;;6.13;4.40;;;12.40;98.80;;;;;;10342604;28;20234;-81
2023/01/07 10:29:19;;;;;;;4.17;3.90;;;12.20;99.90;;;;;;10344075;28;20286;-82
2023/01/07 10:34:25;;;;;;;5.20;4.80;;;12.20;98.60;;;;;;10345430;28;20910;-82
2023/01/07 10:39:35;;;;;;;7.50;6.83;;;12.20;98.30;;;;;;10343576;28;20230;-82
2023/01/07 10:45:21;;;;;;;6.63;6.10;;;12.00;98.80;;;;;;10342653;28;20207;-83
2023/01/07 10:50:36;;;;;;;5.63;5.23;;;11.90;99.30;;;;;;10344428;28;20203;-82
2023/01/07 10:55:48;;;;;;;5.57;5.17;;;11.90;98.70;;;;;;10344472;28;20235;-81
2023/01/07 11:00:52;;;;;;;6.40;5.90;;;11.90;98.50;;;;;;10344190;28;20210;-81
2023/01/07 11:05:57;;;;;;;5.97;5.57;;;11.80;99.10;;;;;;10343680;28;20192;-82
2023/01/07 11:10:59;;;;;;;6.30;5.80;;;11.80;99.30;;;;;;10333072;28;20207;-82
2023/01/07 11:16:09;;;;;;;6.67;5.77;;;11.80;99.30;;;;;;10335277;28;20219;-82
2023/01/07 11:21:11;;;;;;;5.87;5.47;;;11.80;99.90;;;;;;10354033;28;20691;-81
2023/01/07 11:26:17;;;;;;;6.40;5.90;;;11.80;99.40;;;;;;10356140;28;20199;-83
2023/01/07 11:31:21;;;;;;;6.30;5.90;;;11.80;99.30;;;;;;10349639;28;20223;-80
2023/01/07 11:36:39;;;;;;;5.30;5.00;;;11.80;99.50;;;;;;10334443;28;20225;-78
2023/01/07 11:41:52;;;;;;;5.50;5.10;;;11.90;99.30;;;;;;10342396;28;20218;-79
2023/01/07 11:46:56;;;;;;;5.87;5.47;;;11.90;99.10;;;;;;10347901;28;20195;-80
2023/01/07 11:51:58;;;;;;;5.30;4.97;;;11.90;99.20;;;;;;10359144;28;20294;-80
2023/01/07 11:57:20;;;;;;;5.40;5.00;;;11.90;99.00;;;;;;10346269;28;20199;-82
2023/01/07 12:02:27;;;;;;;5.40;4.90;;;11.90;99.60;;;;;;10353275;28;20334;-80
2023/01/07 12:07:29;;;;;;;5.90;5.40;;;11.90;99.90;;;;;;10354372;28;20663;-79
2023/01/07 12:12:38;;;;;;;6.07;5.57;;;11.90;99.60;;;;;;10330401;28;20219;-80
2023/01/07 12:17:46;;;;;;;5.67;5.27;;;11.90;99.90;;;;;;10351352;28;20206;-80
2023/01/07 12:22:56;;;;;;;6.60;6.10;;;12.00;99.60;;;;;;10345381;28;20310;-79
2023/01/07 12:28:09;;;;;;;6.43;5.83;;;12.10;98.90;;;;;;10346143;28;20203;-79
2023/01/07 12:33:27;;;;;;;5.77;5.37;;;12.00;99.40;;;;;;10340107;28;20321;-80
2023/01/07 12:38:41;;;;;;;6.40;5.90;;;12.00;99.40;;;;;;10354489;28;20250;-81
2023/01/07 12:43:55;;;;;;;5.43;5.13;;;12.10;99.00;;;;;;10351662;28;20219;-81
2023/01/07 12:49:05;;;;;;;6.33;5.80;;;12.20;98.50;;;;;;10353208;28;20211;-81
2023/01/07 12:54:15;;;;;;;4.67;4.37;;;12.10;98.90;;;;;;10343001;28;20286;-81
2023/01/07 12:59:24;;;;;;;5.60;5.13;;;12.20;98.40;;;;;;10339570;28;20207;-80
2023/01/07 13:04:41;;;;;;;6.30;5.80;;;12.20;98.20;;;;;;10335952;28;20246;-79
2023/01/07 13:09:50;;;;;;;5.40;5.00;;;12.10;98.60;;;;;;10345239;28;20286;-82
2023/01/07 13:14:56;;;;;;;5.83;5.40;;;12.10;98.70;;;;;;10351271;28;20230;-79
2023/01/07 13:20:00;;;;;;;5.63;5.13;;;12.10;98.50;;;;;;10346091;28;20207;-80
2023/01/07 13:25:17;;;;;;;5.80;5.40;;;12.10;99.60;;;;;;10349544;28;20215;-82
2023/01/07 13:30:26;;;;;;;5.07;4.77;;;12.10;98.70;;;;;;10349979;28;20198;-81
2023/01/07 13:35:42;;;;;;;5.60;5.20;;;12.10;99.20;;;;;;10349952;28;20290;-81
2023/01/07 13:41:01;;;;;;;5.40;4.90;;;12.10;99.30;;;;;;10341919;28;20282;-81
2023/01/07 13:46:08;;;;;;;7.70;5.10;;;12.10;99.70;;;;;;10414974;23;20225;-82
2023/01/07 13:51:11;;;;;;;5.70;5.30;;;12.10;99.90;;;;;;10391196;28;20293;-82
2023/01/07 13:56:37;;;;;;;6.80;6.30;;;12.10;99.90;;;;;;10394028;28;20222;-82
2023/01/07 14:02:14;;;;;;;6.43;5.97;;;12.20;99.10;;;;;;10381105;28;20588;-82
2023/01/07 14:07:18;;;;;;;6.23;5.33;;;12.20;98.60;;;;;;10370702;28;20226;-82
2023/01/07 14:12:56;;;;;;;5.63;5.23;;;12.10;99.10;;;;;;10376400;28;20206;-82
2023/01/07 14:18:32;;;;;;;6.80;6.20;;;12.10;98.90;;;;;;10392081;28;20210;-83
2023/01/07 14:23:44;;;;;;;6.33;5.83;;;12.20;98.60;;;;;;10337606;28;20210;-81
2023/01/07 14:29:01;;;;;;;4.63;4.33;;;12.20;98.30;;;;;;10391887;28;20292;-83
2023/01/07 14:34:07;;;;;;;5.47;4.97;;;12.10;98.50;;;;;;10413827;28;20221;-83
2023/01/07 14:39:32;;;;;;;6.00;5.60;;;12.10;98.90;;;;;;10389710;28;20194;-83
2023/01/07 14:44:34;;;;;;;5.57;5.07;;;12.10;98.70;;;;;;10407184;28;20230;-82
2023/01/07 14:49:59;;;;;;;5.63;4.40;;;12.00;98.90;;;;;;10401798;28;20658;-83
2023/01/07 14:55:21;;;;;;;4.43;4.13;;;12.00;99.10;;;;;;10401964;28;20250;-81
2023/01/07 15:00:54;;;;;;;4.70;4.40;;;11.90;99.30;;;;;;10399976;28;20203;-82
2023/01/07 15:06:08;;;;;;;4.20;3.90;;;11.80;99.30;;;;;;10396527;28;20281;-82
2023/01/07 15:16:46;;;;;;;4.30;3.20;;;11.50;99.90;;;;;;10417673;28;20298;-81
2023/01/07 15:21:58;;;;;;;4.67;4.37;;;11.40;99.90;;;;;;10431742;28;20240;-80
2023/01/07 15:27:09;;;;;;;4.53;4.23;;;11.20;99.90;;;;;;10402173;28;20230;-81
2023/01/07 15:32:23;;;;;;;4.60;4.27;;;11.10;99.90;;;;;;10394046;28;20215;-82
2023/01/07 15:37:25;;;;;;;4.43;4.13;;;11.00;99.90;;;;;;10398276;28;20233;-82
2023/01/07 15:42:31;;;;;;;4.03;3.70;;;10.90;99.90;;;;;;10409030;28;20288;-82
2023/01/07 15:47:38;;;;;;;3.40;3.20;;;10.80;99.90;;;;;;10377453;28;20203;-81
2023/01/07 15:52:40;;;;;;;6.13;4.57;;;10.70;99.90;;;;;;10394143;28;20266;-82
2023/01/07 15:57:43;;;;;;;5.20;4.70;;;10.70;99.90;;;;;;10382269;28;20687;-81
2023/01/07 16:02:46;;;;;;;5.93;5.40;;;10.60;99.90;;;;;;10390015;28;20227;-81
2023/01/07 16:07:53;;;;;;;5.83;5.23;;;10.60;99.90;;;;;;10407059;28;20191;-81
2023/01/07 16:12:59;;;;;;;6.03;5.57;;;10.60;99.90;;;;;;10394074;28;20214;-81
2023/01/07 16:18:04;;;;;;;5.70;5.20;;;10.50;99.90;;;;;;10382272;28;20554;-81
2023/01/07 16:23:19;;;;;;;5.87;5.40;;;10.50;99.90;;;;;;10380066;28;20207;-81
2023/01/07 16:28:27;;;;;;;7.30;6.60;;;10.50;99.90;;;;;;10386604;28;20202;-81
2023/01/07 16:33:33;;;;;;;40.93;24.93;;;10.60;99.90;;;;;;10373459;28;20288;-82
2023/01/07 16:38:36;;;;;;;9.07;8.17;;;10.60;99.90;;;;;;10365755;28;20223;-82
2023/01/07 16:43:44;;;;;;;7.30;6.70;;;10.60;99.90;;;;;;10362780;28;20245;-81
2023/01/07 16:48:47;;;;;;;9.07;8.27;;;10.60;99.90;;;;;;10363981;28;20195;-81
2023/01/07 16:53:49;;;;;;;6.20;5.70;;;10.50;99.90;;;;;;10362338;28;20252;-82
2023/01/07 16:58:54;;;;;;;8.40;6.70;;;10.50;99.90;;;;;;10340730;28;20282;-82
2023/01/07 17:03:58;;;;;;;7.47;6.80;;;10.30;99.90;;;;;;10360439;28;20698;-81
2023/01/07 17:09:00;;;;;;;9.70;8.70;;;10.30;99.90;;;;;;10362411;28;20280;-81
2023/01/07 17:14:04;;;;;;;14.30;12.90;;;10.20;99.90;;;;;;10354369;28;20250;-81
2023/01/07 17:19:23;;;;;;;16.23;14.57;;;10.10;99.90;;;;;;10355352;28;20188;-81
2023/01/07 17:24:47;;;;;;;20.77;16.20;;;10.10;99.90;;;;;;10368354;28;20202;-84
2023/01/07 17:29:51;;;;;;;8.20;7.40;;;10.10;99.90;;;;;;10366067;28;20200;-84
2023/01/07 17:34:53;;;;;;;8.80;8.00;;;10.10;99.90;;;;;;10342109;28;20235;-84
2023/01/07 17:39:55;;;;;;;8.63;7.93;;;10.20;99.90;;;;;;10363998;28;20302;-83
2023/01/07 17:44:58;;;;;;;8.47;7.73;;;10.20;99.90;;;;;;10363691;28;20217;-83
2023/01/07 17:50:01;;;;;;;7.37;6.77;;;10.20;99.90;;;;;;10352979;28;20254;-83
2023/01/07 17:55:03;;;;;;;7.37;6.77;;;10.30;99.90;;;;;;10355378;28;20214;-83
2023/01/07 18:00:14;;;;;;;6.87;6.37;;;10.40;99.90;;;;;;10349603;28;20246;-84
2023/01/07 18:05:18;;;;;;;7.50;7.00;;;10.40;99.90;;;;;;10383768;28;20246;-83
2023/01/07 18:10:25;;;;;;;8.00;7.30;;;10.40;99.90;;;;;;10336197;28;20234;-83
2023/01/07 18:15:29;;;;;;;7.67;6.97;;;10.40;99.90;;;;;;10336987;28;20234;-84
2023/01/07 18:20:31;;;;;;;8.97;8.17;;;10.40;99.90;;;;;;10359014;28;20225;-83
2023/01/07 18:25:33;;;;;;;10.67;9.67;;;10.40;99.90;;;;;;10373667;28;20300;-84
2023/01/07 18:30:37;;;;;;;8.87;8.07;;;10.40;99.90;;;;;;10362030;28;20253;-84
2023/01/07 18:35:40;;;;;;;11.33;10.43;;;10.40;99.90;;;;;;10373177;28;20233;-84
2023/01/07 18:40:43;;;;;;;8.20;7.60;;;10.40;99.90;;;;;;10394173;28;20324;-83
2023/01/07 18:45:47;;;;;;;8.77;8.07;;;10.40;99.90;;;;;;10401221;28;20258;-83
2023/01/07 18:50:49;;;;;;;8.30;7.70;;;10.40;99.90;;;;;;10372967;28;20198;-83
2023/01/07 18:55:58;;;;;;;8.23;7.63;;;10.40;99.90;;;;;;10367499;28;20238;-84
2023/01/07 19:01:04;;;;;;;8.77;8.07;;;10.50;99.90;;;;;;10393129;28;20705;-84
2023/01/07 19:06:07;;;;;;;10.40;9.50;;;10.40;99.90;;;;;;10370951;28;20253;-84
2023/01/07 19:11:12;;;;;;;13.87;10.50;;;10.40;99.90;;;;;;10382689;28;20234;-83
2023/01/07 19:16:15;;;;;;;9.73;8.70;;;10.40;99.90;;;;;;10398267;28;20256;-84
2023/01/07 19:21:18;;;;;;;8.83;8.03;;;10.40;99.90;;;;;;10367798;28;20317;-84
2023/01/07 19:26:20;;;;;;;8.37;7.67;;;10.40;99.90;;;;;;10386598;28;20222;-84
2023/01/07 19:31:24;;;;;;;8.93;8.23;;;10.40;99.90;;;;;;10392149;28;20725;-83
2023/01/07 19:36:26;;;;;;;10.43;9.63;;;10.40;99.90;;;;;;10388080;28;20237;-84
2023/01/07 19:41:28;;;;;;;12.30;11.20;;;10.40;99.90;;;;;;10357236;28;20229;-82
2023/01/07 19:46:33;;;;;;;10.70;9.80;;;10.40;99.90;;;;;;10417837;23;20727;-80
2023/01/07 19:51:38;;;;;;;11.60;10.60;;;10.40;99.90;;;;;;10373872;28;20226;-81
2023/01/07 19:56:42;;;;;;;11.47;10.27;;;10.40;99.90;;;;;;10380446;28;20718;-82
2023/01/07 20:01:45;;;;;;;12.63;11.43;;;10.40;99.90;;;;;;10383010;28;20628;-81
2023/01/07 20:06:49;;;;;;;108.03;54.23;;;10.40;99.90;;;;;;10407409;28;20730;-81
2023/01/07 20:11:51;;;;;;;22.00;16.00;;;10.30;99.90;;;;;;10382234;28;20233;-81
2023/01/07 20:16:54;;;;;;;14.17;12.67;;;10.20;99.90;;;;;;10406200;28;20304;-80
2023/01/07 20:21:56;;;;;;;11.63;10.53;;;10.20;99.90;;;;;;10384057;28;20652;-82
2023/01/07 20:26:58;;;;;;;9.97;9.17;;;10.20;99.90;;;;;;10371834;28;20203;-82
2023/01/07 20:32:06;;;;;;;11.27;10.23;;;10.10;99.90;;;;;;10382958;28;20206;-80
2023/01/07 20:37:08;;;;;;;10.50;9.60;;;10.00;99.80;;;;;;10384178;28;20225;-80
2023/01/07 20:42:10;;;;;;;11.40;10.23;;;9.90;99.90;;;;;;10376343;28;20202;-80
2023/01/07 20:47:13;;;;;;;10.63;9.70;;;9.90;99.90;;;;;;10361344;28;20645;-80
2023/01/07 20:52:15;;;;;;;12.80;11.60;;;9.90;99.90;;;;;;10383132;28;20222;-80
2023/01/07 20:57:18;;;;;;;14.07;12.57;;;9.90;99.90;;;;;;10387032;28;20215;-80
2023/01/07 21:02:21;;;;;;;11.57;10.37;;;9.90;99.90;;;;;;10382700;28;20302;-82
2023/01/07 21:07:23;;;;;;;8.63;7.93;;;10.00;99.90;;;;;;10369594;28;20285;-79
2023/01/07 21:12:25;;;;;;;10.50;9.50;;;10.10;99.90;;;;;;10381677;28;20219;-81
2023/01/07 21:17:29;;;;;;;12.20;10.90;;;10.20;99.90;;;;;;10391879;28;20218;-79
2023/01/07 21:22:31;;;;;;;9.67;8.77;;;10.20;99.90;;;;;;10363349;28;20229;-80
2023/01/07 21:27:33;;;;;;;10.47;9.47;;;10.20;99.90;;;;;;10368091;28;20195;-81
2023/01/07 21:32:36;;;;;;;10.30;9.40;;;10.20;99.90;;;;;;10388652;28;20563;-81
2023/01/07 21:37:38;;;;;;;9.33;8.43;;;10.20;99.90;;;;;;10364387;28;20277;-80
2023/01/07 21:42:40;;;;;;;10.50;9.53;;;10.20;99.90;;;;;;10389836;28;20249;-81
2023/01/07 21:47:44;;;;;;;9.03;8.23;;;10.20;99.90;;;;;;10385524;28;20213;-81
2023/01/07 21:52:46;;;;;;;17.00;12.50;;;10.20;99.90;;;;;;10391638;28;20219;-80
2023/01/07 21:57:48;;;;;;;12.53;10.97;;;10.20;99.90;;;;;;10377687;28;20301;-80
2023/01/07 22:02:52;;;;;;;8.80;8.10;;;10.10;99.90;;;;;;10385037;28;20789;-80
2023/01/07 22:07:54;;;;;;;8.77;7.97;;;10.00;99.90;;;;;;10391413;28;20241;-81
2023/01/07 22:12:56;;;;;;;14.27;12.63;;;10.00;99.90;;;;;;10392458;28;20228;-81
2023/01/07 22:17:59;;;;;;;10.63;9.63;;;10.00;99.80;;;;;;10381136;28;20210;-81
2023/01/07 22:23:01;;;;;;;15.57;14.07;;;9.90;99.90;;;;;;10395009;28;20281;-81
2023/01/07 22:28:04;;;;;;;9.90;9.00;;;9.80;99.90;;;;;;10384637;28;20202;-80
2023/01/07 22:33:08;;;;;;;8.53;7.90;;;9.70;99.90;;;;;;10375722;28;20688;-81
2023/01/07 22:38:13;;;;;;;7.80;7.10;;;9.70;99.90;;;;;;10378658;28;20294;-81
2023/01/07 22:43:19;;;;;;;8.30;7.67;;;9.70;99.90;;;;;;10393242;28;20237;-81
2023/01/07 22:48:26;;;;;;;9.00;8.30;;;9.80;99.90;;;;;;10377947;28;20575;-80
2023/01/07 22:53:29;;;;;;;9.53;8.60;;;9.90;99.90;;;;;;10398855;28;20211;-80
2023/01/07 22:58:31;;;;;;;8.93;8.00;;;9.90;99.90;;;;;;10414725;28;20233;-81
2023/01/07 23:03:34;;;;;;;8.77;7.47;;;9.90;99.90;;;;;;10405129;28;20219;-81
2023/01/07 23:08:37;;;;;;;7.60;6.90;;;10.00;99.90;;;;;;10363501;28;20254;-81
2023/01/07 23:13:39;;;;;;;9.60;7.80;;;10.00;99.90;;;;;;10400541;28;20223;-81
2023/01/07 23:18:42;;;;;;;7.60;6.90;;;10.00;99.90;;;;;;10379116;28;20218;-79
2023/01/07 23:23:44;;;;;;;11.33;7.73;;;10.00;99.90;;;;;;10396395;28;20222;-81
2023/01/07 23:28:46;;;;;;;10.70;7.10;;;10.00;99.90;;;;;;10386038;28;20205;-81
2023/01/07 23:33:49;;;;;;;8.07;7.20;;;10.00;99.90;;;;;;10401553;28;20219;-81
2023/01/07 23:38:52;;;;;;;12.20;7.80;;;10.00;99.90;;;;;;10404510;28;20214;-80
2023/01/07 23:43:54;;;;;;;7.67;6.97;;;10.00;99.90;;;;;;10385215;28;20230;-80
2023/01/07 23:48:57;;;;;;;6.80;6.30;;;10.00;99.90;;;;;;10390477;28;20187;-81
2023/01/07 23:53:59;;;;;;;8.40;7.67;;;10.10;99.90;;;;;;10406974;28;20274;-79
2023/01/07 23:59:02;;;;;;;7.70;6.80;;;10.10;99.90;;;;;;10367964;28;20223;-80
